Time;durP1;ratioP1;P1;durP2;ratioP2;P2;SDS_P1;SDS_P2;PMS_P1;PMS_P2;Temp;Humidity;BMP_temperature;BMP_pressure;BME280_temperature;BME280_humidity;BME280_pressure;Samples;Min_cycle;Max_cycle;Signal;HPM_P1;HPM_P2
2022/12/18 00:00:49;;;;;;;44.25;17.65;;;;;;;-6.43;98.08;102600.47;4967062;28;20073;-80
2022/12/18 00:03:15;;;;;;;44.58;17.90;;;;;;;-6.37;97.99;102586.13;4974574;28;20034;-78
2022/12/18 00:05:48;;;;;;;45.17;18.80;;;;;;;-6.42;97.76;102600.47;4972010;28;20065;-79
2022/12/18 00:08:14;;;;;;;40.80;16.67;;;;;;;-6.40;97.82;102587.81;4957971;28;20046;-78
2022/12/18 00:10:40;;;;;;;48.05;17.13;;;;;;;-6.38;97.62;102586.97;4965593;28;20042;-79
2022/12/18 00:13:05;;;;;;;48.60;17.67;;;;;;;-6.47;97.25;102587.81;4977836;28;20313;-79
2022/12/18 00:15:33;;;;;;;51.10;17.92;;;;;;;-6.44;97.59;102598.75;4969601;28;20034;-79
2022/12/18 00:17:59;;;;;;;44.85;16.23;;;;;;;-6.42;97.21;102600.47;4968348;28;20532;-78
2022/12/18 00:20:25;;;;;;;39.55;16.70;;;;;;;-6.44;97.33;102598.75;4966489;28;20034;-78
2022/12/18 00:22:52;;;;;;;43.17;16.27;;;;;;;-6.53;97.63;102597.13;4966228;28;20467;-79
2022/12/18 00:25:18;;;;;;;45.70;17.13;;;;;;;-6.52;97.86;102597.09;4964517;28;20169;-78
2022/12/18 00:27:44;;;;;;;35.95;15.30;;;;;;;-6.48;97.56;102597.91;4961577;28;20050;-78
2022/12/18 00:30:10;;;;;;;42.08;16.17;;;;;;;-6.49;97.26;102586.16;4963179;28;20034;-79
2022/12/18 00:32:35;;;;;;;48.30;16.45;;;;;;;-6.58;97.41;102592.06;4961673;28;20046;-78
2022/12/18 00:35:01;;;;;;;43.72;16.88;;;;;;;-6.55;97.66;102581.97;4964934;28;20046;-79
2022/12/18 00:37:27;;;;;;;41.78;15.13;;;;;;;-6.51;97.66;102578.59;4960322;28;20073;-78
2022/12/18 00:39:52;;;;;;;42.40;16.45;;;;;;;-6.59;97.57;102579.44;4949708;28;20515;-78
2022/12/18 00:45:04;;;;;;;47.97;16.27;;;;;;;-6.56;97.58;102565.13;4962831;28;20039;-78
2022/12/18 00:47:30;;;;;;;42.08;16.05;;;;;;;-6.58;97.68;102563.47;4963270;28;20026;-79
2022/12/18 00:49:56;;;;;;;45.15;16.70;;;;;;;-6.66;97.63;102560.94;4974368;28;20381;-79
2022/12/18 00:52:21;;;;;;;39.85;15.68;;;;;;;-6.56;98.06;102570.16;4966227;28;20381;-78
2022/12/18 00:54:47;;;;;;;52.13;16.00;;;;;;;-6.43;97.68;102570.16;4957645;28;20051;-78
2022/12/18 00:57:12;;;;;;;41.40;16.42;;;;;;;-6.52;97.66;102576.06;4961527;28;20037;-77
2022/12/18 00:59:37;;;;;;;44.20;15.68;;;;;;;-6.50;97.40;102577.75;4963394;28;20098;-78
2022/12/18 01:02:03;;;;;;;46.45;16.27;;;;;;;-6.66;97.77;102581.13;4960099;28;20150;-79
2022/12/18 01:04:31;;;;;;;41.10;15.45;;;;;;;-6.60;98.11;102582.81;4958083;28;20404;-78
2022/12/18 01:06:57;;;;;;;37.90;14.32;;;;;;;-6.49;97.83;102576.06;4962149;28;20050;-78
2022/12/18 01:09:22;;;;;;;40.78;15.75;;;;;;;-6.60;97.89;102576.06;4956884;28;20072;-78
2022/12/18 01:11:47;;;;;;;41.80;15.88;;;;;;;-6.57;97.54;102583.66;4975805;28;20082;-78
2022/12/18 01:14:13;;;;;;;38.95;15.52;;;;;;;-6.47;97.80;102585.31;4956442;28;20039;-78
2022/12/18 01:16:38;;;;;;;45.45;16.30;;;;;;;-6.54;97.69;102572.69;4961489;28;20544;-77
2022/12/18 01:19:04;;;;;;;42.08;16.33;;;;;;;-6.48;97.61;102567.63;4963056;28;20047;-78
2022/12/18 01:21:29;;;;;;;41.38;16.63;;;;;;;-6.52;97.69;102566.78;4965429;28;20023;-77
2022/12/18 01:23:56;;;;;;;40.25;15.80;;;;;;;-6.43;97.36;102565.09;4968174;28;20680;-78
2022/12/18 01:26:23;;;;;;;38.95;14.65;;;;;;;-6.46;97.61;102564.28;4967697;28;20043;-78
2022/12/18 01:28:49;;;;;;;39.92;16.42;;;;;;;-6.54;97.85;102563.44;4962911;28;20058;-77
2022/12/18 01:31:24;;;;;;;39.97;14.88;;;;;;;-6.53;97.95;102565.13;4966094;28;20039;-78
2022/12/18 01:33:51;;;;;;;39.30;15.35;;;;;;;-6.44;97.75;102571.00;4975327;28;20046;-78
2022/12/18 01:36:17;;;;;;;39.75;15.18;;;;;;;-6.40;97.68;102577.72;4964692;28;20090;-78
2022/12/18 01:38:44;;;;;;;41.45;14.23;;;;;;;-6.49;97.40;102576.06;4959160;28;20046;-78
2022/12/18 01:41:10;;;;;;;39.70;15.32;;;;;;;-6.41;97.48;102569.31;4967940;28;20038;-79
2022/12/18 01:43:44;;;;;;;42.92;16.05;;;;;;;-6.44;97.16;102574.38;4963281;28;20043;-78
2022/12/18 01:46:10;;;;;;;43.83;16.00;;;;;;;-6.46;97.02;102579.44;4964719;28;20043;-79
2022/12/18 01:48:36;;;;;;;42.17;15.85;;;;;;;-6.52;97.00;102571.84;4966046;28;20046;-78
2022/12/18 01:51:05;;;;;;;41.35;15.73;;;;;;;-6.55;97.48;102576.91;4967807;28;20034;-78
2022/12/18 01:53:31;;;;;;;34.92;14.52;;;;;;;-6.44;97.46;102584.47;4977721;28;20089;-77
2022/12/18 01:55:59;;;;;;;40.63;15.98;;;;;;;-6.47;97.18;102576.91;4965002;28;20035;-78
2022/12/18 01:58:40;;;;;;;42.88;15.95;;;;;;;-6.52;97.43;102578.56;4966462;28;20436;-78
2022/12/18 02:01:06;;;;;;;40.00;15.40;;;;;;;-6.51;97.38;102568.50;4953171;28;20034;-79
2022/12/18 02:03:32;;;;;;;41.50;15.85;;;;;;;-6.47;97.16;102571.84;4955890;28;20153;-78
2022/12/18 02:06:12;;;;;;;36.35;15.02;;;;;;;-6.52;97.12;102569.31;4966610;28;20509;-79
2022/12/18 02:08:56;;;;;;;37.35;15.35;;;;;;;-6.49;97.32;102569.31;4965104;28;20142;-78
2022/12/18 02:11:35;;;;;;;43.42;15.18;;;;;;;-6.44;97.49;102565.94;4983450;28;20245;-78
2022/12/18 02:14:29;;;;;;;38.33;14.45;;;;;;;-6.46;96.87;102581.09;4965360;28;20054;-78
2022/12/18 02:17:10;;;;;;;44.80;15.55;;;;;;;-6.58;97.04;102581.97;4950461;28;20081;-79
2022/12/18 02:19:44;;;;;;;41.92;15.90;;;;;;;-6.54;97.19;102575.22;4957106;28;20037;-78
2022/12/18 02:22:41;;;;;;;39.67;15.65;;;;;;;-6.56;97.03;102581.97;4966641;28;20034;-78
2022/12/18 02:25:19;;;;;;;45.45;18.67;;;;;;;-6.59;97.04;102572.72;4963841;28;20129;-78
2022/12/18 02:27:48;;;;;;;46.13;15.82;;;;;;;-6.55;97.02;102571.03;4951051;28;20035;-78
2022/12/18 02:30:15;;;;;;;39.63;16.73;;;;;;;-6.58;96.89;102574.38;4967381;28;20077;-78
2022/12/18 02:33:02;;;;;;;44.78;16.80;;;;;;;-6.60;97.06;102567.66;4952240;28;20034;-78
2022/12/18 02:35:30;;;;;;;41.25;15.00;;;;;;;-6.63;96.80;102560.91;4967205;28;20460;-78
2022/12/18 02:37:59;;;;;;;38.97;15.30;;;;;;;-6.69;96.88;102561.78;4963310;28;20052;-79
2022/12/18 02:40:29;;;;;;;41.92;16.55;;;;;;;-6.69;97.36;102555.91;4961636;28;20085;-78
2022/12/18 02:42:55;;;;;;;41.85;16.88;;;;;;;-6.76;97.56;102552.56;4979112;28;20201;-77
2022/12/18 02:45:20;;;;;;;42.20;15.43;;;;;;;-6.73;97.51;102552.53;4954551;28;20773;-77
2022/12/18 02:47:49;;;;;;;44.15;16.27;;;;;;;-6.63;97.42;102560.09;4987761;28;20038;-78
2022/12/18 02:50:31;;;;;;;41.85;15.75;;;;;;;-6.75;97.19;102559.25;4969571;28;20029;-78
2022/12/18 02:53:06;;;;;;;46.58;16.23;;;;;;;-6.68;97.29;102565.16;4965803;28;20035;-78
2022/12/18 02:55:55;;;;;;;40.10;15.95;;;;;;;-6.65;97.04;102565.13;4957115;28;20400;-77
2022/12/18 02:58:34;;;;;;;44.95;15.57;;;;;;;-6.66;96.83;102564.31;4966426;28;20046;-79
2022/12/18 03:01:30;;;;;;;48.00;15.43;;;;;;;-6.81;96.87;102555.94;4965296;28;20027;-78
2022/12/18 03:04:21;;;;;;;47.50;17.63;;;;;;;-6.69;97.01;102560.94;4966178;28;20039;-78
2022/12/18 03:06:50;;;;;;;41.13;15.05;;;;;;;-6.85;97.34;102560.13;4964512;28;20043;-78
2022/12/18 03:09:31;;;;;;;43.90;16.00;;;;;;;-6.80;97.41;102555.91;4962710;28;20082;-78
2022/12/18 03:12:22;;;;;;;38.55;14.85;;;;;;;-6.75;97.12;102544.13;4965559;28;20048;-78
2022/12/18 03:14:54;;;;;;;39.05;15.25;;;;;;;-6.77;97.06;102550.03;4946278;28;20094;-78
2022/12/18 03:17:22;;;;;;;37.83;15.50;;;;;;;-6.79;97.03;102546.66;4966918;28;20089;-78
2022/12/18 03:19:50;;;;;;;47.15;15.02;;;;;;;-6.66;96.96;102548.31;4974548;28;20042;-78
2022/12/18 03:22:16;;;;;;;43.00;16.88;;;;;;;-6.69;96.77;102538.22;4949911;28;20047;-78
2022/12/18 03:24:48;;;;;;;41.88;15.30;;;;;;;-6.64;96.86;102543.28;4967913;28;20054;-77
2022/12/18 03:27:18;;;;;;;42.03;15.95;;;;;;;-6.59;96.78;102539.91;4962493;28;20026;-77
2022/12/18 03:29:56;;;;;;;46.97;15.27;;;;;;;-6.52;96.23;102541.53;4954515;28;20170;-78
2022/12/18 03:32:33;;;;;;;37.28;16.02;;;;;;;-6.63;96.37;102545.78;4966940;28;20083;-78
2022/12/18 03:35:04;;;;;;;38.70;16.73;;;;;;;-6.63;96.59;102548.31;4966554;28;20029;-78
2022/12/18 03:37:33;;;;;;;42.88;16.08;;;;;;;-6.53;96.53;102544.94;4962733;28;20051;-78
2022/12/18 03:39:59;;;;;;;48.45;17.35;;;;;;;-6.58;96.52;102543.25;4974105;28;20041;-78
2022/12/18 03:42:42;;;;;;;46.40;15.95;;;;;;;-6.61;96.70;102540.72;4986743;28;20030;-79
2022/12/18 03:45:36;;;;;;;40.25;15.57;;;;;;;-6.57;96.59;102543.25;4962687;28;20038;-78
2022/12/18 03:48:19;;;;;;;40.45;16.02;;;;;;;-6.53;96.05;102539.06;4960712;28;20065;-78
2022/12/18 03:51:08;;;;;;;41.08;16.55;;;;;;;-6.59;96.26;102539.91;4968258;28;20041;-78
2022/12/18 03:53:51;;;;;;;37.08;14.77;;;;;;;-6.57;96.36;102535.69;4966278;28;20183;-79
2022/12/18 03:56:24;;;;;;;38.97;15.00;;;;;;;-6.62;96.14;102527.28;4967499;28;20022;-78
2022/12/18 03:58:53;;;;;;;39.83;16.00;;;;;;;-6.64;96.42;102518.88;4966305;28;20047;-79
2022/12/18 04:01:30;;;;;;;38.60;16.10;;;;;;;-6.60;96.67;102518.03;4961658;28;20031;-78
2022/12/18 04:03:59;;;;;;;43.00;15.23;;;;;;;-6.59;96.23;102518.84;4961916;28;20718;-78
2022/12/18 04:06:25;;;;;;;42.55;15.90;;;;;;;-6.58;96.25;102521.38;4979302;28;20034;-77
2022/12/18 04:08:52;;;;;;;39.45;14.77;;;;;;;-6.54;95.91;102517.16;4965227;28;20070;-78
2022/12/18 04:11:20;;;;;;;38.65;15.40;;;;;;;-6.56;95.90;102509.59;4968657;28;20082;-78
2022/12/18 04:13:47;;;;;;;38.63;15.48;;;;;;;-6.47;95.72;102518.84;4968930;28;20073;-78
2022/12/18 04:16:21;;;;;;;42.97;15.98;;;;;;;-6.36;95.40;102521.34;4967200;28;20147;-78
2022/12/18 04:18:50;;;;;;;38.95;15.60;;;;;;;-6.39;95.54;102518.81;4959708;28;20103;-78
2022/12/18 04:21:19;;;;;;;36.72;13.65;;;;;;;-6.37;95.34;102517.09;4964126;28;20492;-78
2022/12/18 04:23:45;;;;;;;42.63;15.25;;;;;;;-6.37;95.48;102520.47;4972120;28;20070;-77
2022/12/18 04:26:12;;;;;;;37.55;14.65;;;;;;;-6.47;95.42;102514.63;4964747;28;20065;-78
2022/12/18 04:28:56;;;;;;;38.88;14.93;;;;;;;-6.39;95.08;102514.59;4961387;28;20043;-78
2022/12/18 04:31:22;;;;;;;37.03;13.70;;;;;;;-6.33;94.92;102528.88;4966345;28;22031;-78
2022/12/18 04:33:47;;;;;;;31.80;14.07;;;;;;;-6.40;95.21;102522.16;4964880;28;20094;-78
2022/12/18 04:36:13;;;;;;;39.83;15.45;;;;;;;-6.41;95.20;102528.91;4964468;28;20500;-78
2022/12/18 04:38:40;;;;;;;40.80;14.30;;;;;;;-6.56;95.38;102509.59;4984162;28;20129;-78
2022/12/18 04:41:10;;;;;;;36.35;14.75;;;;;;;-6.56;95.51;102501.19;4978478;28;20026;-78
2022/12/18 04:43:36;;;;;;;40.22;15.75;;;;;;;-6.50;95.80;102509.59;4969642;28;20034;-78
2022/12/18 04:46:03;;;;;;;39.17;15.05;;;;;;;-6.43;95.47;102510.41;4972230;28;20035;-78
2022/12/18 04:48:29;;;;;;;39.08;15.27;;;;;;;-6.57;95.57;102500.34;4965023;28;20129;-78
2022/12/18 04:50:54;;;;;;;34.72;15.00;;;;;;;-6.52;95.67;102496.09;4970669;28;20081;-78
2022/12/18 04:53:19;;;;;;;36.72;14.65;;;;;;;-6.58;95.72;102490.25;4970827;28;20089;-78
2022/12/18 04:55:45;;;;;;;39.53;15.60;;;;;;;-6.55;96.12;102490.25;4952042;28;20500;-78
2022/12/18 04:58:10;;;;;;;41.97;16.02;;;;;;;-6.48;95.51;102491.91;4968504;28;20047;-78
2022/12/18 05:00:36;;;;;;;40.63;15.52;;;;;;;-6.55;95.47;102487.75;4977195;28;20057;-79
2022/12/18 05:03:02;;;;;;;39.35;15.23;;;;;;;-6.53;95.26;102479.31;4969924;28;20126;-78
2022/12/18 05:05:27;;;;;;;38.70;15.55;;;;;;;-6.57;94.80;102481.81;4972106;28;20049;-78
2022/12/18 05:07:53;;;;;;;45.95;16.33;;;;;;;-6.53;95.47;102488.56;4972783;28;20054;-78
2022/12/18 05:10:18;;;;;;;37.03;14.85;;;;;;;-6.61;95.24;102487.72;4984117;28;20074;-78
2022/12/18 05:12:58;;;;;;;37.70;15.10;;;;;;;-6.58;95.26;102493.63;4970827;28;21043;-78
2022/12/18 05:15:27;;;;;;;40.20;14.80;;;;;;;-6.57;95.31;102481.81;4957514;28;20043;-78
2022/12/18 05:17:53;;;;;;;42.63;16.45;;;;;;;-6.59;95.44;102496.13;4971304;28;20050;-77
2022/12/18 05:20:18;;;;;;;34.83;14.13;;;;;;;-6.66;95.33;102500.38;4973258;28;20034;-78
2022/12/18 05:22:44;;;;;;;35.63;15.65;;;;;;;-6.71;96.21;102492.81;4968657;28;20047;-78
2022/12/18 05:25:10;;;;;;;34.03;14.18;;;;;;;-6.67;95.90;102499.53;4949019;28;20042;-78
2022/12/18 05:27:35;;;;;;;38.53;14.88;;;;;;;-6.76;96.05;102506.28;4974400;28;20031;-77
2022/12/18 05:30:00;;;;;;;37.97;14.68;;;;;;;-6.78;96.32;102511.34;4966262;28;20132;-78
2022/12/18 05:32:26;;;;;;;34.70;14.35;;;;;;;-6.82;96.74;102514.69;4985421;28;20054;-78
2022/12/18 05:34:51;;;;;;;38.38;15.23;;;;;;;-6.81;97.04;102531.53;4967241;28;20035;-78
2022/12/18 05:37:17;;;;;;;35.25;15.60;;;;;;;-6.82;96.88;102536.56;4961519;28;20043;-78
2022/12/18 05:39:44;;;;;;;34.88;15.25;;;;;;;-6.88;97.22;102538.25;4966594;28;20046;-78
2022/12/18 05:42:09;;;;;;;41.95;14.85;;;;;;;-6.82;97.43;102541.63;4970311;28;20045;-77
2022/12/18 05:44:35;;;;;;;42.22;14.63;;;;;;;-6.92;97.22;102538.25;4968847;28;20039;-78
2022/12/18 05:47:00;;;;;;;43.05;16.40;;;;;;;-6.89;97.39;102531.53;4988353;28;20031;-77
2022/12/18 05:49:26;;;;;;;41.72;16.60;;;;;;;-6.68;97.46;102542.44;4966419;28;20035;-78
2022/12/18 05:51:51;;;;;;;44.13;16.75;;;;;;;-6.74;97.10;102540.78;4983792;28;20708;-78
2022/12/18 05:54:17;;;;;;;39.80;16.13;;;;;;;-6.68;96.58;102540.75;4955781;28;20131;-77
2022/12/18 05:56:42;;;;;;;38.15;14.65;;;;;;;-6.73;97.10;102544.13;4971217;28;20037;-78
2022/12/18 05:59:08;;;;;;;42.70;16.40;;;;;;;-6.67;96.90;102544.09;4968451;28;20122;-78
2022/12/18 06:01:34;;;;;;;47.20;16.42;;;;;;;-6.64;96.73;102546.63;4966606;28;20094;-78
2022/12/18 06:03:59;;;;;;;41.53;15.98;;;;;;;-6.66;96.79;102549.16;4978190;28;20039;-78
2022/12/18 06:06:27;;;;;;;39.42;16.55;;;;;;;-6.56;96.74;102552.50;4966202;28;20042;-78
2022/12/18 06:08:53;;;;;;;39.72;15.75;;;;;;;-6.58;96.65;102556.72;4971450;28;20057;-77
2022/12/18 06:11:22;;;;;;;41.95;16.25;;;;;;;-6.57;96.43;102562.59;4971942;28;20046;-78
2022/12/18 06:13:51;;;;;;;38.83;16.40;;;;;;;-6.57;96.54;102547.44;4971046;28;20050;-77
2022/12/18 06:16:16;;;;;;;45.97;17.08;;;;;;;-6.46;96.53;102549.13;4963838;28;20082;-77
2022/12/18 06:18:42;;;;;;;46.00;17.00;;;;;;;-6.61;96.25;102543.25;4976004;28;20511;-79
2022/12/18 06:21:07;;;;;;;45.33;16.85;;;;;;;-6.63;96.50;102534.84;4977998;28;20066;-77
2022/12/18 06:23:33;;;;;;;43.53;16.65;;;;;;;-6.50;96.73;102527.25;4967242;28;20046;-77
2022/12/18 06:26:02;;;;;;;51.25;18.20;;;;;;;-6.46;96.20;102517.97;4970375;28;20034;-78
2022/12/18 06:28:28;;;;;;;40.83;16.83;;;;;;;-6.50;96.21;102512.13;4964245;28;20116;-78
2022/12/18 06:30:53;;;;;;;47.75;17.95;;;;;;;-6.49;96.11;102512.94;4969228;28;20043;-78
2022/12/18 06:33:19;;;;;;;39.83;16.65;;;;;;;-6.60;96.37;102509.63;4970400;28;20043;-78
2022/12/18 06:35:44;;;;;;;45.00;17.13;;;;;;;-6.58;96.19;102507.94;4967705;28;20027;-77
2022/12/18 06:38:10;;;;;;;44.58;17.15;;;;;;;-6.54;96.09;102502.84;4964824;28;20050;-77
2022/12/18 06:40:38;;;;;;;45.13;16.98;;;;;;;-6.53;96.18;102501.19;4967173;28;20035;-78
2022/12/18 06:43:04;;;;;;;40.60;16.35;;;;;;;-6.61;96.28;102508.78;4981325;28;20069;-77
2022/12/18 06:45:29;;;;;;;41.42;16.70;;;;;;;-6.54;96.29;102507.06;4966237;28;20054;-77
2022/12/18 06:47:55;;;;;;;41.85;16.02;;;;;;;-6.46;96.21;102502.81;4961709;28;20054;-78
2022/12/18 06:50:20;;;;;;;45.08;16.83;;;;;;;-6.55;96.32;102500.34;4973109;28;20078;-78
2022/12/18 06:52:46;;;;;;;48.47;18.10;;;;;;;-6.52;96.63;102505.38;4963219;28;20055;-77
2022/12/18 06:55:11;;;;;;;48.28;18.23;;;;;;;-6.54;96.61;102497.81;4966545;28;20035;-78
2022/12/18 06:57:37;;;;;;;44.40;16.67;;;;;;;-6.54;96.81;102507.91;4970615;28;20035;-78
2022/12/18 07:00:06;;;;;;;41.30;16.35;;;;;;;-6.39;96.79;102511.22;4971520;28;20031;-78
2022/12/18 07:02:31;;;;;;;43.08;16.88;;;;;;;-6.37;96.21;102512.91;4967800;28;20041;-79
2022/12/18 07:04:57;;;;;;;47.72;19.42;;;;;;;-6.37;96.30;102510.38;4972951;28;20039;-77
2022/12/18 07:07:22;;;;;;;47.15;18.30;;;;;;;-6.42;96.52;102507.03;4966515;28;20523;-77
2022/12/18 07:09:50;;;;;;;44.42;17.02;;;;;;;-6.41;96.55;102506.19;4963304;28;20451;-78
2022/12/18 07:12:15;;;;;;;44.40;17.45;;;;;;;-6.36;96.52;102503.66;4967577;28;20572;-78
2022/12/18 07:14:41;;;;;;;49.97;19.05;;;;;;;-6.26;96.23;102507.81;4966641;28;20049;-77
2022/12/18 07:17:06;;;;;;;46.30;18.70;;;;;;;-6.21;95.95;102505.28;4963335;28;20035;-78
2022/12/18 07:19:32;;;;;;;40.10;17.05;;;;;;;-6.17;95.86;102506.94;4972740;28;20050;-78
2022/12/18 07:21:58;;;;;;;44.55;17.38;;;;;;;-6.21;95.99;102501.06;4964801;28;20035;-77
2022/12/18 07:24:23;;;;;;;43.50;17.30;;;;;;;-6.23;96.09;102497.72;4968128;28;20624;-78
2022/12/18 07:26:49;;;;;;;48.47;17.27;;;;;;;-6.20;96.33;102504.41;4967350;28;20043;-77
2022/12/18 07:29:14;;;;;;;47.25;17.65;;;;;;;-6.16;95.88;102493.44;4966604;28;20036;-77
2022/12/18 07:31:40;;;;;;;46.40;18.27;;;;;;;-6.15;95.99;102493.44;4966038;28;20095;-77
2022/12/18 07:34:09;;;;;;;46.10;18.00;;;;;;;-6.20;96.20;102490.09;4938299;28;20043;-77
2022/12/18 07:36:34;;;;;;;46.33;17.45;;;;;;;-6.11;96.08;102482.47;4965059;28;20393;-77
2022/12/18 07:39:00;;;;;;;39.65;17.40;;;;;;;-6.01;95.45;102483.25;4957884;28;20124;-77
2022/12/18 07:41:25;;;;;;;46.15;18.65;;;;;;;-5.98;95.58;102490.84;4966543;28;20023;-78
2022/12/18 07:43:51;;;;;;;48.30;18.42;;;;;;;-5.99;95.40;102488.31;4958205;28;20124;-76
2022/12/18 07:46:17;;;;;;;46.25;17.55;;;;;;;-5.92;95.01;102484.88;4965411;28;20543;-77
2022/12/18 07:48:43;;;;;;;40.95;17.67;;;;;;;-5.96;94.63;102485.78;4964034;28;20061;-78
2022/12/18 07:51:09;;;;;;;42.53;17.58;;;;;;;-5.97;94.66;102487.47;4968087;28;20062;-78
2022/12/18 07:53:35;;;;;;;53.15;17.75;;;;;;;-5.83;94.89;102476.41;4967050;28;20515;-77
2022/12/18 07:56:05;;;;;;;47.53;17.63;;;;;;;-5.83;94.47;102477.25;4965121;28;20042;-78
2022/12/18 07:58:30;;;;;;;51.17;17.38;;;;;;;-5.80;94.21;102464.59;4966041;28;20049;-78
2022/12/18 08:01:12;;;;;;;48.05;18.65;;;;;;;-5.83;94.67;102469.66;4944188;28;20022;-77
2022/12/18 08:03:39;;;;;;;52.78;21.20;;;;;;;-5.76;94.21;102463.72;4958213;28;20055;-77
2022/12/18 08:06:08;;;;;;;42.67;17.08;;;;;;;-5.82;94.32;102456.19;4974535;28;20092;-78
2022/12/18 08:08:35;;;;;;;47.10;17.73;;;;;;;-5.81;94.81;102447.75;4967846;28;20034;-78
2022/12/18 08:11:00;;;;;;;48.00;18.27;;;;;;;-5.74;94.40;102440.97;4965270;28;20536;-78
2022/12/18 08:13:27;;;;;;;43.55;16.08;;;;;;;-5.61;94.11;102437.50;4959701;28;20040;-77
2022/12/18 08:16:00;;;;;;;43.08;16.20;;;;;;;-5.59;93.79;102424.84;4960121;28;20035;-77
2022/12/18 08:18:26;;;;;;;40.85;15.82;;;;;;;-5.53;93.29;102432.38;4961793;28;20659;-78
2022/12/18 08:20:51;;;;;;;36.92;16.20;;;;;;;-5.50;93.06;102429.81;4963396;28;20045;-78
2022/12/18 08:23:17;;;;;;;43.58;16.02;;;;;;;-5.42;92.96;102412.06;4960724;28;20043;-78
2022/12/18 08:25:42;;;;;;;42.42;15.82;;;;;;;-5.41;92.91;102418.78;4970373;28;20042;-76
2022/12/18 08:28:08;;;;;;;42.42;15.43;;;;;;;-5.39;92.63;102425.50;4965638;28;20073;-77
2022/12/18 08:30:33;;;;;;;34.55;15.00;;;;;;;-5.25;92.16;102427.09;4961657;28;20043;-78
2022/12/18 08:32:58;;;;;;;41.75;15.02;;;;;;;-5.16;92.26;102437.09;4962601;28;20697;-78
2022/12/18 08:35:24;;;;;;;43.17;16.13;;;;;;;-5.10;91.81;102437.06;4962338;28;20092;-78
2022/12/18 08:37:50;;;;;;;42.78;16.55;;;;;;;-5.10;91.60;102434.53;4964040;28;20085;-77
2022/12/18 08:40:15;;;;;;;44.50;15.73;;;;;;;-5.03;91.30;102425.16;4963670;28;20688;-78
2022/12/18 08:45:24;;;;;;;41.72;15.43;;;;;;;-4.98;91.52;102429.31;4962315;28;20030;-77
2022/12/18 08:47:50;;;;;;;42.88;15.85;;;;;;;-4.96;91.35;102420.03;4962656;28;20047;-77
2022/12/18 08:50:16;;;;;;;40.40;15.43;;;;;;;-4.92;91.28;102416.59;4964932;28;20038;-78
2022/12/18 08:52:41;;;;;;;40.45;15.25;;;;;;;-4.84;91.10;102421.59;4958612;28;20464;-77
2022/12/18 08:55:08;;;;;;;36.03;15.52;;;;;;;-4.71;90.28;102405.41;4966971;28;20041;-78
2022/12/18 08:57:33;;;;;;;36.83;16.65;;;;;;;-4.74;90.61;102415.56;4957746;28;20507;-78
2022/12/18 08:59:59;;;;;;;38.60;15.93;;;;;;;-4.69;90.24;102420.56;4962456;28;20031;-76
2022/12/18 09:02:24;;;;;;;40.70;16.23;;;;;;;-4.58;89.83;102416.19;4965460;28;20407;-78
2022/12/18 09:04:50;;;;;;;49.10;16.95;;;;;;;-4.54;89.90;102419.53;4965540;28;20641;-77
2022/12/18 09:07:15;;;;;;;40.60;15.70;;;;;;;-4.61;89.78;102417.97;4964527;28;20039;-77
2022/12/18 09:09:41;;;;;;;41.47;16.08;;;;;;;-4.54;89.80;102420.41;4960354;28;20050;-77
2022/12/18 09:12:06;;;;;;;49.28;17.00;;;;;;;-4.48;89.66;102418.63;4980425;28;20042;-77
2022/12/18 09:14:31;;;;;;;43.08;17.08;;;;;;;-4.48;89.79;102414.41;4969329;28;20319;-77
2022/12/18 09:16:57;;;;;;;42.50;16.55;;;;;;;-4.40;89.56;102412.59;4965030;28;20050;-78
2022/12/18 09:19:22;;;;;;;41.47;17.33;;;;;;;-4.31;88.84;102421.78;4966860;28;20054;-76
2022/12/18 09:21:48;;;;;;;38.75;15.98;;;;;;;-4.22;88.61;102408.16;4964262;28;20670;-78
2022/12/18 09:24:14;;;;;;;37.88;15.82;;;;;;;-4.27;88.76;102402.31;4967329;28;20045;-78
2022/12/18 09:26:40;;;;;;;38.38;16.25;;;;;;;-4.17;88.44;102401.31;4963749;28;20046;-78
2022/12/18 09:29:07;;;;;;;36.95;15.98;;;;;;;-4.10;87.94;102395.31;4961495;28;20043;-77
2022/12/18 09:31:33;;;;;;;38.83;16.20;;;;;;;-4.03;88.02;102396.03;4958869;28;20061;-78
2022/12/18 09:33:58;;;;;;;40.47;16.02;;;;;;;-3.98;87.69;102379.06;4965848;28;20054;-76
2022/12/18 09:36:25;;;;;;;38.40;16.42;;;;;;;-3.93;87.00;102377.31;4962232;28;20138;-77
2022/12/18 09:38:50;;;;;;;46.65;17.13;;;;;;;-3.95;87.16;102374.81;4968182;28;20047;-77
2022/12/18 09:41:30;;;;;;;41.72;14.98;;;;;;;-3.82;86.99;102377.97;4982305;28;20034;-77
2022/12/18 09:44:00;;;;;;;44.92;16.05;;;;;;;-3.84;86.73;102379.72;4968507;28;20043;-77
2022/12/18 09:46:35;;;;;;;36.00;14.50;;;;;;;-3.72;85.93;102389.63;4967039;28;20119;-77
2022/12/18 09:49:06;;;;;;;40.08;15.90;;;;;;;-3.69;86.16;102396.38;4964117;28;20665;-77
2022/12/18 09:51:44;;;;;;;40.35;15.73;;;;;;;-3.66;86.13;102372.66;4960557;28;20042;-77
2022/12/18 09:54:23;;;;;;;37.80;13.93;;;;;;;-3.64;86.48;102358.25;4963092;28;20110;-76
2022/12/18 09:56:49;;;;;;;39.33;15.55;;;;;;;-3.61;85.96;102358.22;4961562;28;20035;-77
2022/12/18 09:59:30;;;;;;;35.35;14.80;;;;;;;-3.62;85.39;102364.94;4967357;28;20043;-77
2022/12/18 10:01:56;;;;;;;41.65;15.80;;;;;;;-3.63;85.75;102359.94;4979835;28;20053;-77
2022/12/18 10:04:23;;;;;;;42.42;15.73;;;;;;;-3.61;86.18;102351.44;4980202;28;20524;-78
2022/12/18 10:06:54;;;;;;;33.55;13.88;;;;;;;-3.50;85.42;102361.38;4968787;28;20034;-77
2022/12/18 10:09:41;;;;;;;36.70;15.27;;;;;;;-3.49;85.00;102354.59;4968768;28;20050;-78
2022/12/18 10:12:29;;;;;;;33.42;15.25;;;;;;;-3.47;84.54;102351.16;4947995;28;20041;-79
2022/12/18 10:15:23;;;;;;;40.03;15.43;;;;;;;-3.38;84.87;102355.25;4961433;28;20042;-78
2022/12/18 10:18:02;;;;;;;34.08;14.70;;;;;;;-3.33;84.73;102361.91;4950765;28;20138;-78
2022/12/18 10:20:36;;;;;;;45.60;15.25;;;;;;;-3.30;84.00;102350.88;4989301;28;20031;-77
2022/12/18 10:23:12;;;;;;;34.75;15.05;;;;;;;-3.31;83.87;102361.91;4979516;28;20051;-77
2022/12/18 10:26:01;;;;;;;38.75;14.50;;;;;;;-3.25;84.39;102349.09;4966162;28;20035;-78
2022/12/18 10:28:29;;;;;;;36.38;14.93;;;;;;;-3.23;83.95;102344.81;4986831;28;20044;-77
2022/12/18 10:30:54;;;;;;;37.95;15.40;;;;;;;-3.17;83.75;102326.09;4973479;28;20038;-79
2022/12/18 10:33:23;;;;;;;41.88;15.10;;;;;;;-3.10;83.74;102316.66;4968758;28;20039;-77
2022/12/18 10:35:51;;;;;;;37.90;14.57;;;;;;;-2.99;83.60;102332.53;4966196;28;20066;-77
2022/12/18 10:38:16;;;;;;;36.60;15.18;;;;;;;-2.95;83.15;102329.88;4969210;28;20035;-78
2022/12/18 10:40:58;;;;;;;42.60;15.55;;;;;;;-3.01;82.62;102322.41;4976776;28;20288;-78
2022/12/18 10:43:29;;;;;;;34.22;14.90;;;;;;;-2.93;82.90;102329.84;4964488;28;21013;-79
2022/12/18 10:46:00;;;;;;;40.92;15.65;;;;;;;-2.94;83.15;102313.78;4968153;28;20051;-79
2022/12/18 10:48:26;;;;;;;43.67;15.07;;;;;;;-2.91;83.03;102307.81;4954533;28;20047;-80
2022/12/18 10:50:53;;;;;;;34.10;14.25;;;;;;;-2.89;82.51;102307.78;4975369;28;20054;-79
2022/12/18 10:53:27;;;;;;;37.97;13.60;;;;;;;-2.78;82.48;102310.91;4972396;28;20125;-78
2022/12/18 10:55:55;;;;;;;34.38;13.90;;;;;;;-2.83;81.51;102300.03;4966969;28;20038;-77
2022/12/18 10:58:25;;;;;;;35.08;15.60;;;;;;;-2.79;81.93;102312.63;4967798;28;20054;-77
2022/12/18 11:01:12;;;;;;;34.97;14.75;;;;;;;-2.71;81.96;102315.00;4963250;28;20049;-79
2022/12/18 11:03:43;;;;;;;40.40;16.17;;;;;;;-2.70;82.51;102319.19;4948940;28;20133;-78
2022/12/18 11:06:12;;;;;;;43.92;15.57;;;;;;;-2.66;82.17;102315.72;4967178;28;20684;-79
2022/12/18 11:08:38;;;;;;;46.28;15.63;;;;;;;-2.62;81.71;102309.72;4969042;28;20069;-81
2022/12/18 11:11:15;;;;;;;35.45;14.90;;;;;;;-2.56;80.82;102296.88;4967099;28;20102;-78
2022/12/18 11:13:54;;;;;;;37.53;15.63;;;;;;;-2.62;80.99;102291.94;4980180;28;20042;-80
2022/12/18 11:16:20;;;;;;;40.10;16.42;;;;;;;-2.52;80.58;102271.38;4953668;28;20050;-80
2022/12/18 11:18:46;;;;;;;39.67;16.08;;;;;;;-2.50;80.66;102284.91;4967511;28;20566;-81
2022/12/18 11:21:13;;;;;;;39.88;16.33;;;;;;;-2.55;80.49;102282.47;4970333;28;20946;-81
2022/12/18 11:23:46;;;;;;;35.92;15.23;;;;;;;-2.52;80.95;102279.00;4962930;28;20043;-82